Time;durP1;ratioP1;P1;durP2;ratioP2;P2;SDS_P1;SDS_P2;PMS_P1;PMS_P2;Temp;Humidity;BMP_temperature;BMP_pressure;BME280_temperature;BME280_humidity;BME280_pressure;Samples;Min_cycle;Max_cycle;Signal;HPM_P1;HPM_P2
2022/11/05 00:10:58;;;;;;;10.20;4.85;;;7.10;99.90;;;;;;5139917;27;20049;-47
2022/11/05 00:19:13;;;;;;;15.25;4.88;;;7.50;99.90;;;;;;5145213;27;20046;-48
2022/11/05 00:27:08;;;;;;;10.45;4.60;;;7.00;99.90;;;;;;5150003;27;20133;-48
2022/11/05 00:29:34;;;;;;;13.02;4.63;;;7.40;99.90;;;;;;5148239;27;20090;-49
2022/11/05 00:32:00;;;;;;;12.20;4.68;;;6.90;99.90;;;;;;5137655;27;20074;-48
2022/11/05 00:34:26;;;;;;;12.15;5.47;;;6.80;99.90;;;;;;5139802;27;20035;-48
2022/11/05 00:36:51;;;;;;;10.18;4.80;;;6.90;99.90;;;;;;5146195;27;20101;-50
2022/11/05 00:39:17;;;;;;;11.27;5.28;;;6.80;99.90;;;;;;5143659;27;20094;-47
2022/11/05 00:41:43;;;;;;;16.83;5.15;;;7.10;99.90;;;;;;5098375;27;20095;-48
2022/11/05 00:49:28;;;;;;;16.10;5.60;;;7.00;99.90;;;;;;5127015;27;20121;-50
2022/11/05 00:49:38;;;;;;;11.90;4.97;;;6.70;99.90;;;;;;5140200;27;20061;-48
2022/11/05 00:54:48;;;;;;;11.57;5.30;;;6.90;99.90;;;;;;5137581;27;20092;-50
2022/11/05 00:57:13;;;;;;;12.10;4.88;;;6.60;99.90;;;;;;5142718;27;20035;-51
2022/11/05 00:59:39;;;;;;;9.77;4.80;;;7.00;99.90;;;;;;5142470;27;20104;-48
2022/11/05 01:02:05;;;;;;;10.38;5.00;;;6.90;99.90;;;;;;5138021;27;20066;-48
2022/11/05 01:04:30;;;;;;;14.68;5.97;;;6.90;99.90;;;;;;5143669;27;20035;-50
2022/11/05 01:06:56;;;;;;;13.20;5.35;;;6.80;99.90;;;;;;5146088;27;20777;-49
2022/11/05 01:09:22;;;;;;;12.73;5.72;;;6.80;99.90;;;;;;5124953;27;20142;-48
2022/11/05 01:11:47;;;;;;;15.23;5.70;;;6.80;99.90;;;;;;5144981;27;20051;-46
2022/11/05 01:14:17;;;;;;;16.98;6.75;;;6.60;99.90;;;;;;5131685;27;20034;-47
2022/11/05 01:16:44;;;;;;;13.32;5.50;;;6.40;99.90;;;;;;5142339;27;20090;-46
2022/11/05 01:19:10;;;;;;;13.68;6.05;;;6.30;99.90;;;;;;5140456;27;20115;-47
2022/11/05 01:21:36;;;;;;;16.75;5.95;;;6.40;99.90;;;;;;5141442;27;20390;-45
2022/11/05 01:24:03;;;;;;;18.42;6.07;;;6.50;99.90;;;;;;5144013;27;20116;-49
2022/11/05 01:26:29;;;;;;;16.58;7.25;;;6.40;99.90;;;;;;5145590;27;20035;-48
2022/11/05 01:28:56;;;;;;;18.17;6.30;;;6.40;99.90;;;;;;5140880;27;20035;-49
2022/11/05 01:31:23;;;;;;;18.67;6.13;;;6.50;99.90;;;;;;5133064;27;20032;-50
2022/11/05 01:33:49;;;;;;;17.83;5.60;;;6.40;99.90;;;;;;5136459;27;20038;-48
2022/11/05 01:36:15;;;;;;;13.02;5.63;;;6.40;99.90;;;;;;5145104;27;20034;-48
2022/11/05 01:38:41;;;;;;;15.68;5.57;;;6.40;99.90;;;;;;5144758;27;20050;-51
2022/11/05 01:41:07;;;;;;;15.43;5.53;;;6.20;99.90;;;;;;5133245;27;20047;-49
2022/11/05 01:44:00;;;;;;;15.07;5.72;;;6.30;99.90;;;;;;5145933;27;20110;-50
2022/11/05 01:46:31;;;;;;;13.55;4.68;;;6.10;99.90;;;;;;5121616;27;20138;-50
2022/11/05 01:49:17;;;;;;;9.82;5.03;;;6.40;99.90;;;;;;5139505;27;20038;-48
2022/11/05 01:51:44;;;;;;;12.38;5.05;;;6.00;99.90;;;;;;5138027;27;20067;-48
2022/11/05 01:54:13;;;;;;;11.82;5.07;;;6.10;99.90;;;;;;5141179;27;20027;-50
2022/11/05 01:56:43;;;;;;;12.18;5.38;;;6.20;99.90;;;;;;5141330;27;20454;-46
2022/11/05 01:59:20;;;;;;;11.93;4.55;;;6.20;99.90;;;;;;5140778;27;20037;-50
2022/11/05 02:01:46;;;;;;;13.10;5.15;;;6.20;99.90;;;;;;5140783;27;20424;-50
2022/11/05 02:04:16;;;;;;;9.32;4.47;;;5.80;99.90;;;;;;5124411;27;20031;-47
2022/11/05 02:06:45;;;;;;;11.93;4.60;;;6.00;99.90;;;;;;5115198;27;20039;-48
2022/11/05 02:09:18;;;;;;;12.82;4.13;;;6.00;99.90;;;;;;5134467;27;20194;-49
2022/11/05 02:11:45;;;;;;;11.20;4.47;;;5.60;99.90;;;;;;5146097;27;20031;-47
2022/11/05 02:14:11;;;;;;;13.27;4.60;;;5.80;99.90;;;;;;5142920;27;20034;-48
2022/11/05 02:16:45;;;;;;;10.27;4.60;;;5.60;99.90;;;;;;5145139;27;20528;-49
2022/11/05 02:19:22;;;;;;;10.55;4.97;;;5.90;99.90;;;;;;5142167;27;20470;-50
2022/11/05 02:22:18;;;;;;;10.25;4.80;;;5.10;99.90;;;;;;5143311;27;20384;-47
2022/11/05 02:24:55;;;;;;;14.63;5.18;;;5.60;99.90;;;;;;5135811;27;20119;-48
2022/11/05 02:27:29;;;;;;;15.63;5.45;;;6.10;99.90;;;;;;5144337;27;20030;-48
2022/11/05 02:30:21;;;;;;;12.50;6.22;;;5.80;99.90;;;;;;5136400;27;20043;-47
2022/11/05 02:32:54;;;;;;;10.00;5.22;;;5.70;99.90;;;;;;5123484;27;20066;-49
2022/11/05 02:35:28;;;;;;;16.70;5.93;;;5.90;99.90;;;;;;5125516;27;20064;-52
2022/11/05 02:38:08;;;;;;;15.48;6.55;;;5.70;99.90;;;;;;5117293;27;20054;-48
2022/11/05 02:41:10;;;;;;;11.00;6.68;;;5.40;99.90;;;;;;5122143;27;20369;-47
2022/11/05 02:43:53;;;;;;;10.32;5.93;;;5.60;99.90;;;;;;5121895;27;20138;-48
2022/11/05 02:46:44;;;;;;;12.55;6.40;;;5.70;99.90;;;;;;5136699;27;20384;-50
2022/11/05 02:49:51;;;;;;;11.77;6.25;;;5.40;99.90;;;;;;5147083;27;20475;-48
2022/11/05 02:52:58;;;;;;;13.88;6.70;;;5.40;99.90;;;;;;5146254;27;20518;-48
2022/11/05 02:55:41;;;;;;;14.38;6.32;;;5.70;99.90;;;;;;5132465;27;20027;-49
2022/11/05 02:58:07;;;;;;;13.75;6.22;;;5.50;99.90;;;;;;5148344;27;20027;-48
2022/11/05 03:00:42;;;;;;;20.70;6.97;;;5.40;99.90;;;;;;5144066;27;20034;-49
2022/11/05 03:03:15;;;;;;;11.55;5.70;;;5.70;99.90;;;;;;5135882;27;20050;-48
2022/11/05 03:06:08;;;;;;;17.50;5.93;;;5.70;99.90;;;;;;5141763;27;20039;-48
2022/11/05 03:08:36;;;;;;;14.23;6.55;;;5.60;99.90;;;;;;5140086;27;20095;-47
2022/11/05 03:11:20;;;;;;;17.83;6.78;;;5.60;99.90;;;;;;5134951;27;20129;-48
2022/11/05 03:14:19;;;;;;;13.95;7.03;;;5.20;99.90;;;;;;5137133;27;20030;-49
2022/11/05 03:17:20;;;;;;;14.27;7.45;;;5.50;99.90;;;;;;5138121;27;20026;-48
2022/11/05 03:20:07;;;;;;;13.65;6.60;;;5.40;99.90;;;;;;5143244;27;20481;-48
2022/11/05 03:22:42;;;;;;;12.95;6.20;;;5.50;99.90;;;;;;5119409;27;20109;-48
2022/11/05 03:25:14;;;;;;;13.63;5.60;;;5.20;99.90;;;;;;5137507;27;20117;-49
2022/11/05 03:27:45;;;;;;;13.18;5.78;;;5.40;99.90;;;;;;5144799;27;20031;-49
2022/11/05 03:30:12;;;;;;;13.20;5.25;;;5.10;99.90;;;;;;5139382;27;20087;-49
2022/11/05 03:32:43;;;;;;;9.75;5.07;;;5.50;99.90;;;;;;5145785;27;20099;-48
2022/11/05 03:35:18;;;;;;;12.30;5.70;;;5.10;99.90;;;;;;5139691;27;20386;-51
2022/11/05 03:37:48;;;;;;;14.52;5.50;;;5.00;99.90;;;;;;5131776;27;20039;-48
2022/11/05 03:40:17;;;;;;;8.48;4.90;;;5.10;99.90;;;;;;5131995;27;20035;-51
2022/11/05 03:42:47;;;;;;;10.88;4.80;;;5.30;99.90;;;;;;5141663;27;20061;-51
2022/11/05 03:45:18;;;;;;;12.68;4.65;;;5.00;99.90;;;;;;5120593;27;20031;-50
2022/11/05 03:47:48;;;;;;;12.20;5.30;;;5.20;99.90;;;;;;5144651;27;20436;-49
2022/11/05 03:50:26;;;;;;;12.05;4.97;;;5.00;99.90;;;;;;5132663;27;20038;-49
2022/11/05 03:52:58;;;;;;;11.00;5.82;;;5.30;99.90;;;;;;5139282;27;20045;-49
2022/11/05 03:55:28;;;;;;;10.80;5.25;;;5.00;99.90;;;;;;5122403;27;20042;-48
2022/11/05 03:57:56;;;;;;;12.68;5.03;;;5.40;99.90;;;;;;5143729;27;20106;-46
2022/11/05 04:00:22;;;;;;;12.13;4.93;;;5.10;99.90;;;;;;5143735;27;20099;-48
2022/11/05 04:02:49;;;;;;;11.88;4.57;;;5.00;99.90;;;;;;5139362;27;20045;-48
2022/11/05 04:05:15;;;;;;;10.15;5.32;;;5.00;99.90;;;;;;5140149;27;20042;-48
2022/11/05 04:13:23;;;;;;;;;;;5.30;99.90;;;;;;5128991;27;20030;-47
2022/11/05 04:18:35;;;;;;;11.90;5.30;;;5.30;99.90;;;;;;5134642;27;20124;-48
2022/11/05 04:26:29;;;;;;;10.90;6.13;;;5.10;99.90;;;;;;5140362;27;20091;-47
2022/11/05 04:31:39;;;;;;;16.35;6.20;;;4.90;99.90;;;;;;5140025;27;20046;-48
2022/11/05 04:34:05;;;;;;;11.07;6.03;;;5.30;99.90;;;;;;5100579;27;20039;-51
2022/11/05 04:36:31;;;;;;;16.73;6.38;;;4.90;99.90;;;;;;5143487;27;20070;-47
2022/11/05 04:38:56;;;;;;;14.45;6.18;;;5.20;99.90;;;;;;5139111;27;20078;-48
2022/11/05 04:41:22;;;;;;;13.52;6.15;;;5.30;99.90;;;;;;5138924;27;20039;-48
2022/11/05 04:43:48;;;;;;;13.32;7.18;;;5.20;99.90;;;;;;5145989;27;20167;-47
2022/11/05 04:46:14;;;;;;;13.23;6.80;;;5.20;99.90;;;;;;5135293;27;20117;-52
2022/11/05 04:48:39;;;;;;;12.45;6.55;;;5.00;99.90;;;;;;5144500;27;20035;-49
2022/11/05 04:51:05;;;;;;;13.52;6.60;;;4.90;99.90;;;;;;5138716;27;20050;-48
2022/11/05 04:53:31;;;;;;;12.73;6.38;;;4.90;99.90;;;;;;5147237;27;20471;-48
2022/11/05 04:56:28;;;;;;;11.48;6.43;;;4.80;99.90;;;;;;5140699;27;20033;-47
2022/11/05 04:58:54;;;;;;;12.95;6.95;;;4.80;99.90;;;;;;5140597;27;20046;-46
2022/11/05 05:01:22;;;;;;;13.27;7.07;;;5.20;99.90;;;;;;5144283;27;20031;-46
2022/11/05 05:03:49;;;;;;;12.45;5.88;;;5.20;99.90;;;;;;5145245;27;20053;-47
2022/11/05 05:06:16;;;;;;;17.95;6.90;;;5.10;99.90;;;;;;5122031;27;20030;-50
2022/11/05 05:08:42;;;;;;;17.00;6.85;;;4.90;99.90;;;;;;5150547;27;20031;-47
2022/11/05 05:11:15;;;;;;;13.75;6.55;;;5.00;99.90;;;;;;5142763;27;20038;-49
2022/11/05 05:13:41;;;;;;;17.23;6.93;;;4.70;99.90;;;;;;5148053;27;20034;-48
2022/11/05 05:16:10;;;;;;;14.77;7.05;;;4.80;99.90;;;;;;5151380;27;20086;-48
2022/11/05 05:18:35;;;;;;;15.23;6.97;;;4.70;99.90;;;;;;5142647;27;20035;-48
2022/11/05 05:23:47;;;;;;;13.70;7.43;;;4.90;99.90;;;;;;5140455;27;20092;-47
2022/11/05 05:26:13;;;;;;;14.75;8.02;;;5.00;99.90;;;;;;5121290;27;20554;-52
2022/11/05 05:28:39;;;;;;;15.77;8.43;;;5.50;99.90;;;;;;5143822;27;20039;-47
2022/11/05 05:31:05;;;;;;;16.88;8.70;;;5.30;99.90;;;;;;5149448;27;20088;-47
2022/11/05 05:33:31;;;;;;;18.00;8.30;;;5.40;99.90;;;;;;5143011;27;20098;-47
2022/11/05 05:35:57;;;;;;;13.65;8.52;;;5.70;99.90;;;;;;5136548;27;20465;-46
2022/11/05 05:38:23;;;;;;;13.70;8.65;;;5.80;99.90;;;;;;5138375;27;20141;-48
2022/11/05 05:40:50;;;;;;;17.38;8.75;;;5.70;99.90;;;;;;5137561;27;20051;-47
2022/11/05 05:43:16;;;;;;;16.05;9.00;;;5.90;99.90;;;;;;5144658;27;20035;-48
2022/11/05 05:45:42;;;;;;;15.80;8.40;;;5.50;99.90;;;;;;5137106;27;20035;-48
2022/11/05 05:48:07;;;;;;;19.23;8.40;;;6.00;99.90;;;;;;5151965;27;20049;-47
2022/11/05 05:50:33;;;;;;;15.02;8.48;;;5.90;99.90;;;;;;5139261;27;20055;-50
2022/11/05 05:52:59;;;;;;;13.48;8.40;;;5.80;99.90;;;;;;5150253;27;20038;-49
2022/11/05 05:55:24;;;;;;;11.70;7.60;;;5.50;99.90;;;;;;5140932;27;20039;-48
2022/11/05 05:57:50;;;;;;;12.98;8.45;;;5.80;99.90;;;;;;5143871;27;20039;-47
2022/11/05 06:00:16;;;;;;;13.30;7.75;;;5.50;99.90;;;;;;5141693;27;20032;-47
2022/11/05 06:02:42;;;;;;;14.85;7.75;;;5.40;99.90;;;;;;5126035;27;20032;-52
2022/11/05 06:05:07;;;;;;;14.00;7.72;;;5.70;99.90;;;;;;5140332;27;20038;-48
2022/11/05 06:07:33;;;;;;;14.73;7.47;;;5.80;99.90;;;;;;5148854;27;20039;-47
2022/11/05 06:09:59;;;;;;;13.13;7.03;;;5.60;99.90;;;;;;5135985;27;20047;-49
2022/11/05 06:12:24;;;;;;;13.88;7.50;;;5.30;99.90;;;;;;5141956;27;20030;-47
2022/11/05 06:14:50;;;;;;;14.10;6.95;;;5.70;99.90;;;;;;5131254;27;20038;-47
2022/11/05 06:17:16;;;;;;;14.02;7.50;;;5.50;99.90;;;;;;5143118;27;20034;-49
2022/11/05 06:19:41;;;;;;;13.07;7.20;;;5.40;99.90;;;;;;5139174;27;20125;-49
2022/11/05 06:22:07;;;;;;;19.38;7.75;;;5.10;99.90;;;;;;5134562;27;20110;-49
2022/11/05 06:24:32;;;;;;;17.25;7.43;;;5.50;99.90;;;;;;5139407;27;20034;-50
2022/11/05 06:26:58;;;;;;;14.07;7.10;;;5.50;99.90;;;;;;5140943;27;20047;-48
2022/11/05 06:29:24;;;;;;;16.88;7.40;;;5.20;99.90;;;;;;5141437;27;20038;-47
2022/11/05 06:31:49;;;;;;;13.30;7.03;;;5.30;99.90;;;;;;5142261;27;20043;-47
2022/11/05 06:34:15;;;;;;;13.65;7.07;;;5.20;99.90;;;;;;5140210;27;20641;-47
2022/11/05 06:36:41;;;;;;;14.32;6.72;;;5.40;99.90;;;;;;5139077;27;20083;-50
2022/11/05 06:39:11;;;;;;;15.63;7.60;;;5.00;99.90;;;;;;5117566;27;20517;-47
2022/11/05 06:41:37;;;;;;;14.65;7.13;;;5.40;99.90;;;;;;5113840;27;20047;-47
2022/11/05 06:44:02;;;;;;;13.15;6.93;;;4.90;99.90;;;;;;5126305;27;20050;-49
2022/11/05 06:46:28;;;;;;;13.68;7.35;;;5.20;99.90;;;;;;5125746;27;20042;-46
2022/11/05 06:48:54;;;;;;;14.27;7.38;;;5.30;99.90;;;;;;5122737;27;20043;-48
2022/11/05 06:51:20;;;;;;;10.82;6.93;;;4.80;99.90;;;;;;5114194;27;20035;-48
2022/11/05 06:53:45;;;;;;;15.48;7.72;;;5.30;99.90;;;;;;5124431;27;20031;-48
2022/11/05 06:56:11;;;;;;;17.00;7.68;;;4.90;99.90;;;;;;5121824;27;20501;-49
2022/11/05 06:58:37;;;;;;;16.80;8.18;;;4.80;99.90;;;;;;5119008;27;20042;-48
2022/11/05 07:01:06;;;;;;;12.82;7.47;;;4.80;99.90;;;;;;5124239;27;20035;-48
2022/11/05 07:03:32;;;;;;;15.20;7.70;;;5.00;99.90;;;;;;5116084;27;20031;-48
2022/11/05 07:05:59;;;;;;;12.52;7.57;;;4.80;99.90;;;;;;5102067;27;20062;-47
2022/11/05 07:08:26;;;;;;;13.93;7.55;;;5.30;99.90;;;;;;5110403;28;20118;-47
2022/11/05 07:10:52;;;;;;;13.80;7.88;;;4.90;99.90;;;;;;5122436;27;20047;-48
2022/11/05 07:13:18;;;;;;;12.70;7.63;;;5.20;99.90;;;;;;5122995;27;20032;-47
2022/11/05 07:15:44;;;;;;;15.95;7.95;;;4.70;99.90;;;;;;5117575;27;20394;-47
2022/11/05 07:18:10;;;;;;;16.42;8.13;;;4.90;99.90;;;;;;5116318;27;20036;-48
2022/11/05 07:20:35;;;;;;;16.25;8.45;;;5.20;99.90;;;;;;5111543;27;20122;-47
2022/11/05 07:23:05;;;;;;;16.40;7.97;;;5.30;99.90;;;;;;5122111;27;20039;-49
2022/11/05 07:25:32;;;;;;;13.25;8.02;;;5.30;99.90;;;;;;5121521;27;20115;-49
2022/11/05 07:27:59;;;;;;;18.67;8.35;;;4.80;99.90;;;;;;5117587;27;20048;-49
2022/11/05 07:30:24;;;;;;;17.60;9.05;;;5.00;99.90;;;;;;5119534;27;20039;-48
2022/11/05 07:32:50;;;;;;;18.98;8.63;;;4.90;99.90;;;;;;5112084;27;20039;-47
2022/11/05 07:35:16;;;;;;;16.40;8.75;;;5.20;99.90;;;;;;5109919;28;20452;-50
2022/11/05 07:37:44;;;;;;;17.50;8.82;;;5.00;99.90;;;;;;5113471;27;20075;-47
2022/11/05 07:40:11;;;;;;;17.02;9.00;;;5.00;99.90;;;;;;5129806;27;20038;-49
2022/11/05 07:42:44;;;;;;;15.48;8.60;;;5.30;99.90;;;;;;5110110;27;20111;-48
2022/11/05 07:45:11;;;;;;;18.48;9.55;;;5.30;99.90;;;;;;5131242;27;20061;-48
2022/11/05 07:47:59;;;;;;;19.05;9.07;;;5.30;99.90;;;;;;5138027;27;20125;-46
2022/11/05 07:50:27;;;;;;;15.93;9.48;;;5.20;99.90;;;;;;5135018;27;20428;-47
2022/11/05 07:52:58;;;;;;;17.40;9.93;;;5.20;99.90;;;;;;5118029;27;20035;-47
2022/11/05 07:55:23;;;;;;;17.35;9.85;;;6.00;99.90;;;;;;5123065;27;20122;-49
2022/11/05 07:57:50;;;;;;;20.73;10.63;;;5.40;99.90;;;;;;5117621;27;20196;-47
2022/11/05 08:00:21;;;;;;;20.13;10.55;;;5.90;99.90;;;;;;5123978;27;20096;-52
2022/11/05 08:02:59;;;;;;;18.30;10.55;;;5.70;99.90;;;;;;5103564;27;20389;-48
2022/11/05 08:05:25;;;;;;;19.95;10.60;;;5.50;99.90;;;;;;5124291;27;20096;-50
2022/11/05 08:07:54;;;;;;;22.30;11.15;;;5.60;99.90;;;;;;5124327;27;20045;-49
2022/11/05 08:10:20;;;;;;;17.92;10.13;;;6.10;99.90;;;;;;5123340;27;20047;-48
2022/11/05 08:12:46;;;;;;;17.65;10.07;;;6.10;99.90;;;;;;5122336;27;20043;-47
2022/11/05 08:15:11;;;;;;;16.88;10.68;;;5.90;99.90;;;;;;5106246;27;20707;-47
2022/11/05 08:17:37;;;;;;;17.73;9.98;;;6.00;99.90;;;;;;5123112;27;20100;-48
2022/11/05 08:20:03;;;;;;;21.60;9.95;;;6.80;99.90;;;;;;5123531;27;20039;-48
2022/11/05 08:22:29;;;;;;;16.98;9.82;;;6.40;99.90;;;;;;5124346;27;20042;-52
2022/11/05 08:24:54;;;;;;;16.25;9.98;;;6.80;99.90;;;;;;5103921;27;20054;-49
2022/11/05 08:27:20;;;;;;;18.52;10.15;;;6.60;99.90;;;;;;5108191;27;20489;-53
2022/11/05 08:29:46;;;;;;;15.63;9.43;;;6.50;99.90;;;;;;5107326;27;20496;-49
2022/11/05 08:32:11;;;;;;;15.30;10.07;;;7.20;99.90;;;;;;5126025;27;20035;-48
2022/11/05 08:34:37;;;;;;;16.20;10.15;;;7.10;99.90;;;;;;5126069;27;20035;-53
2022/11/05 08:37:03;;;;;;;19.10;9.82;;;7.20;99.90;;;;;;5123528;27;20406;-48
2022/11/05 08:39:28;;;;;;;13.60;9.55;;;6.90;99.90;;;;;;5125831;27;20462;-48
2022/11/05 08:41:54;;;;;;;15.52;9.40;;;7.00;99.90;;;;;;5124531;27;20500;-47
2022/11/05 08:44:20;;;;;;;15.10;8.80;;;7.20;99.90;;;;;;5103613;27;20401;-51
2022/11/05 08:46:45;;;;;;;17.25;9.18;;;7.60;99.90;;;;;;5122933;27;20039;-51
2022/11/05 08:49:11;;;;;;;14.98;8.32;;;7.60;99.90;;;;;;5120105;27;20108;-50
2022/11/05 08:51:37;;;;;;;12.05;8.50;;;7.60;99.90;;;;;;5124485;27;20454;-48
2022/11/05 08:54:03;;;;;;;17.15;8.70;;;7.50;99.90;;;;;;5124990;27;20042;-50
2022/11/05 08:56:29;;;;;;;16.45;7.85;;;7.80;99.90;;;;;;5124501;27;20541;-49
2022/11/05 08:58:54;;;;;;;12.05;7.00;;;7.70;99.90;;;;;;5125148;27;20027;-46
2022/11/05 09:01:20;;;;;;;16.00;7.95;;;7.90;99.90;;;;;;5124780;27;20032;-50
2022/11/05 09:03:50;;;;;;;12.60;7.63;;;7.90;99.90;;;;;;5123640;27;20083;-50
2022/11/05 09:06:15;;;;;;;13.32;7.78;;;8.10;99.90;;;;;;5124664;27;20509;-49
2022/11/05 09:08:41;;;;;;;10.52;6.68;;;8.20;99.90;;;;;;5103952;27;20023;-50
2022/11/05 09:11:07;;;;;;;13.07;7.80;;;8.60;99.90;;;;;;5124244;27;20426;-50
2022/11/05 09:13:32;;;;;;;11.60;6.57;;;8.60;99.90;;;;;;5122892;27;20050;-48
2022/11/05 09:15:58;;;;;;;13.10;6.53;;;8.80;99.90;;;;;;5124455;27;20035;-51
2022/11/05 09:18:24;;;;;;;12.75;7.57;;;8.60;99.90;;;;;;5125526;27;20426;-47
2022/11/05 09:20:50;;;;;;;12.75;6.53;;;8.80;99.90;;;;;;5123597;27;20039;-52
2022/11/05 09:23:16;;;;;;;10.60;6.57;;;9.00;99.90;;;;;;5124566;27;20031;-47
2022/11/05 09:25:43;;;;;;;11.95;6.25;;;9.20;99.90;;;;;;5123847;27;20047;-48
2022/11/05 09:28:16;;;;;;;8.63;5.45;;;9.20;99.90;;;;;;5124714;27;20053;-48
2022/11/05 09:30:47;;;;;;;10.77;6.13;;;9.30;99.90;;;;;;5124361;27;20047;-49
2022/11/05 09:33:13;;;;;;;10.68;6.15;;;9.00;99.90;;;;;;5122038;27;20462;-48
2022/11/05 09:35:40;;;;;;;11.68;6.22;;;8.90;99.90;;;;;;5123397;27;20480;-47
2022/11/05 09:38:06;;;;;;;9.52;6.38;;;8.90;99.90;;;;;;5122489;27;20343;-52
2022/11/05 09:40:40;;;;;;;11.00;6.85;;;9.00;99.90;;;;;;5123286;27;20047;-47
2022/11/05 09:43:06;;;;;;;14.95;7.13;;;9.20;99.90;;;;;;5123663;27;20039;-50
2022/11/05 09:45:34;;;;;;;10.40;6.68;;;9.50;99.90;;;;;;5102907;27;20078;-48
2022/11/05 09:48:11;;;;;;;11.10;7.00;;;9.50;99.90;;;;;;5124296;27;20027;-47
2022/11/05 09:50:41;;;;;;;11.30;6.75;;;9.70;99.90;;;;;;5122350;27;20031;-48
2022/11/05 09:53:14;;;;;;;10.80;6.70;;;9.80;99.90;;;;;;5124696;27;20034;-48
2022/11/05 09:55:55;;;;;;;10.68;6.13;;;9.90;99.90;;;;;;5105221;27;20043;-49
2022/11/05 09:58:42;;;;;;;12.02;6.38;;;10.00;99.90;;;;;;5120991;27;20054;-48
2022/11/05 10:01:16;;;;;;;11.38;5.78;;;9.90;99.90;;;;;;5104951;27;20392;-47
2022/11/05 10:03:48;;;;;;;10.43;5.90;;;10.30;99.90;;;;;;5121740;27;20043;-50
2022/11/05 10:06:20;;;;;;;9.20;4.97;;;10.60;99.90;;;;;;5123277;27;20170;-52
2022/11/05 10:08:51;;;;;;;10.05;4.13;;;11.00;99.90;;;;;;5121530;27;20497;-49
2022/11/05 10:11:32;;;;;;;10.20;3.80;;;11.50;99.90;;;;;;5105537;27;20054;-50
2022/11/05 10:14:26;;;;;;;11.00;4.07;;;11.80;99.90;;;;;;5118055;27;20046;-51
2022/11/05 10:17:21;;;;;;;8.77;3.47;;;11.90;99.90;;;;;;5122697;27;20044;-49
2022/11/05 10:19:52;;;;;;;;;;;12.20;99.90;;;;;;5120843;27;20074;-48
2022/11/05 10:22:18;;;;;;;10.95;3.30;;;11.60;99.90;;;;;;5121208;27;19964;-48
2022/11/05 10:24:46;;;;;;;11.93;4.07;;;11.50;99.90;;;;;;5103612;27;20154;-51
2022/11/05 10:27:22;;;;;;;8.30;3.65;;;11.40;99.90;;;;;;5122368;27;20039;-49
2022/11/05 10:29:49;;;;;;;7.70;3.15;;;11.30;99.90;;;;;;5122616;27;20050;-49
2022/11/05 10:32:38;;;;;;;6.78;2.90;;;11.20;99.90;;;;;;5122894;27;20051;-50
2022/11/05 10:35:10;;;;;;;6.15;2.60;;;11.10;99.90;;;;;;5118795;27;20038;-50
2022/11/05 10:37:37;;;;;;;7.95;2.88;;;11.10;99.90;;;;;;5121425;27;20058;-50
2022/11/05 10:40:14;;;;;;;9.63;3.13;;;11.10;99.90;;;;;;5102011;27;20126;-50
2022/11/05 10:42:52;;;;;;;5.15;2.72;;;11.10;99.90;;;;;;5122920;27;20439;-51
2022/11/05 10:45:26;;;;;;;5.45;3.10;;;11.30;99.90;;;;;;5124087;27;20605;-49
2022/11/05 10:47:55;;;;;;;8.20;3.58;;;11.50;99.90;;;;;;5105596;27;20112;-47
2022/11/05 10:50:25;;;;;;;6.88;3.15;;;11.50;99.90;;;;;;5123628;27;20031;-49
2022/11/05 10:52:51;;;;;;;7.18;3.03;;;11.40;99.90;;;;;;5120827;27;20126;-48
2022/11/05 10:55:27;;;;;;;6.53;3.22;;;11.50;99.90;;;;;;5122079;27;20035;-52
2022/11/05 10:57:53;;;;;;;8.27;3.28;;;11.40;99.90;;;;;;5121359;27;20046;-48
2022/11/05 11:00:20;;;;;;;11.00;3.50;;;11.40;99.90;;;;;;5118885;27;20031;-48
2022/11/05 11:02:52;;;;;;;5.97;2.88;;;11.40;99.90;;;;;;5122017;27;20026;-47
2022/11/05 11:05:44;;;;;;;7.00;3.20;;;11.40;99.90;;;;;;5120753;27;20458;-49
2022/11/05 11:08:10;;;;;;;9.68;3.00;;;11.30;99.90;;;;;;5118252;27;20054;-49
2022/11/05 11:10:51;;;;;;;7.07;3.20;;;11.30;99.90;;;;;;5120955;27;20039;-48
2022/11/05 11:13:25;;;;;;;10.43;3.38;;;11.10;99.90;;;;;;5086266;27;20058;-50
2022/11/05 11:15:51;;;;;;;11.57;4.30;;;11.10;99.90;;;;;;5120186;27;20117;-50
2022/11/05 11:18:29;;;;;;;9.15;3.90;;;11.00;99.90;;;;;;5117480;27;20091;-50
2022/11/05 11:21:14;;;;;;;7.25;4.15;;;10.90;99.90;;;;;;5116077;27;20035;-51
2022/11/05 11:23:42;;;;;;;12.80;3.90;;;11.00;99.90;;;;;;5119217;27;20408;-47
2022/11/05 11:26:10;;;;;;;11.60;3.90;;;10.90;99.90;;;;;;5120950;27;20039;-49
2022/11/05 11:28:50;;;;;;;9.98;4.32;;;10.90;99.90;;;;;;5119211;27;20029;-51
2022/11/05 11:31:24;;;;;;;9.00;4.15;;;10.90;99.90;;;;;;5119768;27;20061;-49
2022/11/05 11:34:01;;;;;;;;;;;10.80;99.90;;;;;;5121520;27;20110;-47
2022/11/05 11:36:34;;;;;;;7.78;3.63;;;10.70;99.90;;;;;;5121601;27;19940;-51
2022/11/05 11:39:03;;;;;;;9.05;4.47;;;10.80;99.90;;;;;;5118161;27;20051;-52
2022/11/05 11:41:37;;;;;;;11.40;4.45;;;10.80;99.90;;;;;;5100509;27;22002;-50
2022/11/05 11:44:38;;;;;;;10.10;4.53;;;10.80;99.90;;;;;;5120236;27;20047;-50
2022/11/05 11:47:11;;;;;;;9.43;5.15;;;10.90;99.90;;;;;;5078335;27;20054;-48
2022/11/05 11:49:58;;;;;;;9.20;5.38;;;10.90;99.90;;;;;;5121467;27;20935;-45
2022/11/05 11:52:36;;;;;;;8.30;4.93;;;10.80;99.90;;;;;;5117613;27;20406;-48
2022/11/05 11:55:10;;;;;;;8.15;4.82;;;10.90;99.90;;;;;;5120675;27;20047;-47
2022/11/05 11:58:06;;;;;;;9.13;4.95;;;10.90;99.90;;;;;;5120191;27;20027;-49
2022/11/05 12:00:39;;;;;;;12.55;5.35;;;11.00;99.90;;;;;;5127829;27;20099;-51
2022/11/05 12:03:34;;;;;;;8.97;5.07;;;11.00;99.90;;;;;;5135986;27;20435;-50
2022/11/05 12:06:04;;;;;;;;;;;11.00;99.90;;;;;;5115716;27;20047;-47
2022/11/05 12:08:50;;;;;;;8.85;4.43;;;11.00;99.90;;;;;;5136303;27;19919;-51
2022/11/05 12:11:15;;;;;;;11.90;4.43;;;11.10;99.90;;;;;;5129649;27;20079;-50
2022/11/05 12:13:58;;;;;;;8.65;5.10;;;11.20;99.90;;;;;;5135080;27;20474;-49
2022/11/05 12:16:32;;;;;;;10.05;5.35;;;11.20;99.90;;;;;;5129191;27;20032;-48
2022/11/05 12:19:18;;;;;;;8.80;4.82;;;11.30;99.90;;;;;;5134151;27;20089;-49
2022/11/05 12:22:29;;;;;;;6.97;4.00;;;11.30;99.90;;;;;;5128440;27;20099;-48
2022/11/05 12:25:20;;;;;;;11.13;4.60;;;11.30;99.90;;;;;;5130023;27;20047;-49
2022/11/05 12:27:59;;;;;;;10.77;4.43;;;11.40;99.90;;;;;;5128257;27;20205;-48
2022/11/05 12:30:25;;;;;;;9.05;4.15;;;11.50;99.90;;;;;;5121900;27;20039;-51
2022/11/05 12:33:11;;;;;;;10.32;4.32;;;11.50;99.90;;;;;;5126084;27;20138;-53
2022/11/05 12:35:56;;;;;;;11.07;4.30;;;11.60;99.90;;;;;;5075522;27;20047;-51
2022/11/05 12:38:47;;;;;;;9.98;4.40;;;11.60;99.90;;;;;;5128827;27;20047;-50
2022/11/05 12:41:30;;;;;;;7.70;4.40;;;11.60;99.90;;;;;;5132027;27;20044;-50
2022/11/05 12:44:22;;;;;;;9.80;4.67;;;11.70;99.90;;;;;;5127065;27;20043;-48
2022/11/05 12:47:01;;;;;;;8.63;4.72;;;11.80;99.90;;;;;;5130023;27;20352;-52
2022/11/05 12:49:56;;;;;;;16.52;4.50;;;11.70;99.90;;;;;;5128861;27;20030;-49
2022/11/05 12:52:42;;;;;;;9.52;4.22;;;11.70;99.90;;;;;;5123645;27;20394;-50
2022/11/05 12:55:19;;;;;;;10.23;4.38;;;11.80;99.90;;;;;;5127960;27;20042;-48
2022/11/05 12:57:48;;;;;;;9.23;4.30;;;11.70;99.90;;;;;;5126845;27;20035;-52
2022/11/05 13:00:16;;;;;;;9.90;4.65;;;11.80;99.90;;;;;;5130547;27;20031;-49
2022/11/05 13:03:14;;;;;;;8.23;4.13;;;11.80;99.90;;;;;;5129244;27;20071;-51
2022/11/05 13:05:48;;;;;;;9.68;4.03;;;11.70;99.90;;;;;;5112462;27;20031;-54
2022/11/05 13:08:28;;;;;;;10.40;4.70;;;11.70;99.90;;;;;;5125685;27;20053;-50
2022/11/05 13:10:59;;;;;;;8.50;4.22;;;11.70;99.90;;;;;;5148047;27;20095;-51
2022/11/05 13:13:38;;;;;;;9.95;4.50;;;11.70;99.90;;;;;;5140361;27;20041;-48
2022/11/05 13:16:09;;;;;;;10.43;4.10;;;11.70;99.90;;;;;;5124166;27;20031;-47
2022/11/05 13:18:51;;;;;;;10.35;4.60;;;11.70;99.90;;;;;;5142292;27;20498;-52
2022/11/05 13:21:22;;;;;;;7.38;4.07;;;11.70;99.90;;;;;;5117956;27;20046;-48
2022/11/05 13:24:29;;;;;;;8.27;4.00;;;11.70;99.90;;;;;;5122583;27;20035;-48
2022/11/05 13:27:07;;;;;;;10.43;4.38;;;11.70;99.90;;;;;;5132852;27;20377;-50
2022/11/05 13:29:43;;;;;;;8.77;4.00;;;11.70;99.90;;;;;;5145085;27;20054;-49
2022/11/05 13:32:24;;;;;;;9.82;4.00;;;11.60;99.90;;;;;;5139711;27;20043;-50
2022/11/05 13:34:58;;;;;;;8.73;4.32;;;11.50;99.90;;;;;;5143472;27;20035;-49
2022/11/05 13:40:39;;;;;;;9.07;3.90;;;11.50;99.90;;;;;;5138995;27;20093;-47
2022/11/05 13:43:29;;;;;;;11.63;4.15;;;11.40;99.90;;;;;;5146676;27;20039;-48
2022/11/05 13:46:24;;;;;;;6.60;3.75;;;11.40;99.90;;;;;;5142507;27;20416;-46
2022/11/05 13:49:00;;;;;;;;;;;11.40;99.90;;;;;;5144676;27;20034;-46
2022/11/05 13:51:28;;;;;;;9.30;3.50;;;11.30;99.90;;;;;;5141048;27;19930;-48
2022/11/05 13:54:28;;;;;;;10.13;3.72;;;11.30;99.90;;;;;;5140233;27;20464;-48
2022/11/05 13:57:06;;;;;;;7.90;3.67;;;11.30;99.90;;;;;;5138810;27;20039;-48
2022/11/05 13:59:55;;;;;;;8.25;4.18;;;11.30;99.90;;;;;;5145298;27;20037;-48
2022/11/05 14:02:25;;;;;;;7.03;3.70;;;11.30;99.90;;;;;;5136405;27;20046;-48